메인 페이지
METAR-TAF:

METAR-TAF

공항 :

De Aar, 남아프리카공화국

위도: 30-40-29S, 경도: 23-59-57E, 고도: 1286m

현재 날씨관측

예보는 17 시간 12분 전, 09:43시(UTC)에 발표되었습니다.
남남동5kt
온도 15°C
습도 23%
기압 1025 hPa
시정 10km 이상
1500m 미만 상공 구름 및 적란운 없음

METAR: FADY 240943Z 16005KT CAVOK 15/M06 Q1025

시각: 04:55 (02:55 UTC)


TAF: 누락

4,000개 이상의 공항 관측 자료 및 예보 (METAR 및 TAF 보고).

지도상에서 검색 가능한 기상관측소가 노란 점과 빨간 점으로 표시되어 있습니다.

기상관측소 명을 보려면 표시 위로 마우스를 이동하세요.

날씨 관측과 예보를 보려면 클릭하세요.

지도 변경 : 확대하려면 엑스 표시가 있는 녹색 버튼, 축소하려면 빼기 표시가 있는 녹색 버튼, 다음 페이지의 지도를 보려면 녹색 화살표를 클릭하세요.


METAR-TAF: